sensor_id;sensor_type;location;lat;lon;timestamp;pressure;altitude;pressure_sealevel;temperature;humidity
77517;BME280;68414;53.946;27.634;2023-12-14T00:00:42;98465.453125;;;3.640000;72.705078
77517;BME280;68414;53.946;27.634;2023-12-14T00:01:42;98463.851562;;;3.680000;73.049805
77517;BME280;68414;53.946;27.634;2023-12-14T00:02:42;98462.531250;;;3.660000;72.673828
77517;BME280;68414;53.946;27.634;2023-12-14T00:03:42;98464.648438;;;3.690000;73.018555
77517;BME280;68414;53.946;27.634;2023-12-14T00:04:42;98467.046875;;;3.650000;72.619141
77517;BME280;68414;53.946;27.634;2023-12-14T00:05:42;98467.843750;;;3.660000;72.783203
77517;BME280;68414;53.946;27.634;2023-12-14T00:06:42;98459.601562;;;3.670000;72.896484
77517;BME280;68414;53.946;27.634;2023-12-14T00:07:42;98466.250000;;;3.650000;72.837891
77517;BME280;68414;53.946;27.634;2023-12-14T00:08:42;98459.875000;;;3.660000;72.597656
77517;BME280;68414;53.946;27.634;2023-12-14T00:09:42;98458.546875;;;3.630000;73.118164
77517;BME280;68414;53.946;27.634;2023-12-14T00:10:42;98457.218750;;;3.660000;73.329102
77517;BME280;68414;53.946;27.634;2023-12-14T00:11:42;98466.507812;;;3.680000;72.973633
77517;BME280;68414;53.946;27.634;2023-12-14T00:12:42;98463.328125;;;3.660000;72.642578
77517;BME280;68414;53.946;27.634;2023-12-14T00:13:42;98464.125000;;;3.670000;73.342773
77517;BME280;68414;53.946;27.634;2023-12-14T00:14:42;98458.281250;;;3.650000;72.903320
77517;BME280;68414;53.946;27.634;2023-12-14T00:15:42;98459.601562;;;3.670000;72.733398
77517;BME280;68414;53.946;27.634;2023-12-14T00:16:42;98466.507812;;;3.680000;72.744141
77517;BME280;68414;53.946;27.634;2023-12-14T00:17:42;98456.945312;;;3.670000;73.082031
77517;BME280;68414;53.946;27.634;2023-12-14T00:18:42;98460.671875;;;3.660000;72.293945
77517;BME280;68414;53.946;27.634;2023-12-14T00:19:42;98460.929688;;;3.700000;72.637695
77517;BME280;68414;53.946;27.634;2023-12-14T00:20:42;98457.734375;;;3.730000;72.828125
77517;BME280;68414;53.946;27.634;2023-12-14T00:21:42;98460.656250;;;3.720000;72.979492
77517;BME280;68414;53.946;27.634;2023-12-14T00:22:42;98460.929688;;;3.700000;72.845703
77517;BME280;68414;53.946;27.634;2023-12-14T00:23:42;98461.195312;;;3.680000;72.722656
77517;BME280;68414;53.946;27.634;2023-12-14T00:24:42;98468.640625;;;3.660000;72.926758
77517;BME280;68414;53.946;27.634;2023-12-14T00:25:42;98461.468750;;;3.670000;72.971680
77517;BME280;68414;53.946;27.634;2023-12-14T00:26:42;98460.140625;;;3.590000;73.394531
77517;BME280;68414;53.946;27.634;2023-12-14T00:27:42;98462.265625;;;3.570000;73.128906
77517;BME280;68414;53.946;27.634;2023-12-14T00:28:42;98459.875000;;;3.660000;73.394531
77517;BME280;68414;53.946;27.634;2023-12-14T00:29:42;98461.468750;;;3.670000;72.840820
77517;BME280;68414;53.946;27.634;2023-12-14T00:30:42;98458.265625;;;3.700000;72.943359
77517;BME280;68414;53.946;27.634;2023-12-14T00:31:42;98455.343750;;;3.720000;73.066406
77517;BME280;68414;53.946;27.634;2023-12-14T00:32:42;98453.750000;;;3.700000;72.563477
77517;BME280;68414;53.946;27.634;2023-12-14T00:33:42;98457.734375;;;3.730000;72.882812
77517;BME280;68414;53.946;27.634;2023-12-14T00:34:42;98455.875000;;;3.740000;72.764648
77517;BME280;68414;53.946;27.634;2023-12-14T00:35:42;98455.335938;;;3.770000;72.736328
77517;BME280;68414;53.946;27.634;2023-12-14T00:36:42;98460.921875;;;3.750000;72.833008
77517;BME280;68414;53.946;27.634;2023-12-14T00:37:42;98462.515625;;;3.710000;72.508789
77517;BME280;68414;53.946;27.634;2023-12-14T00:38:42;98454.273438;;;3.780000;72.914062
77517;BME280;68414;53.946;27.634;2023-12-14T00:39:42;98452.679688;;;3.770000;72.506836
77517;BME280;68414;53.946;27.634;2023-12-14T00:40:42;98452.140625;;;3.800000;72.830078
77517;BME280;68414;53.946;27.634;2023-12-14T00:41:42;98450.546875;;;3.790000;72.204102
77517;BME280;68414;53.946;27.634;2023-12-14T00:42:42;98455.609375;;;3.700000;72.670898
77517;BME280;68414;53.946;27.634;2023-12-14T00:43:42;98449.773438;;;3.680000;73.104492
77517;BME280;68414;53.946;27.634;2023-12-14T00:44:42;98459.859375;;;3.710000;72.923828
77517;BME280;68414;53.946;27.634;2023-12-14T00:45:42;98460.125000;;;3.750000;73.235352
77517;BME280;68414;53.946;27.634;2023-12-14T00:46:42;98456.406250;;;3.760000;73.083984
77517;BME280;68414;53.946;27.634;2023-12-14T00:47:42;98453.476562;;;3.770000;72.399414
77517;BME280;68414;53.946;27.634;2023-12-14T00:48:42;98455.335938;;;3.770000;72.211914
77517;BME280;68414;53.946;27.634;2023-12-14T00:49:42;98460.382812;;;3.780000;72.695312
77517;BME280;68414;53.946;27.634;2023-12-14T00:50:42;98461.976562;;;3.790000;72.828125
77517;BME280;68414;53.946;27.634;2023-12-14T00:51:42;98452.140625;;;3.800000;72.818359
77517;BME280;68414;53.946;27.634;2023-12-14T00:52:42;98460.609375;;;3.820000;72.702148
77517;BME280;68414;53.946;27.634;2023-12-14T00:53:42;98450.515625;;;3.840000;72.574219
77517;BME280;68414;53.946;27.634;2023-12-14T00:54:42;98459.281250;;;3.840000;72.433594
77517;BME280;68414;53.946;27.634;2023-12-14T00:55:42;98458.750000;;;3.820000;72.648438
77517;BME280;68414;53.946;27.634;2023-12-14T00:56:42;98458.750000;;;3.820000;72.670898
77517;BME280;68414;53.946;27.634;2023-12-14T00:57:42;98458.515625;;;3.790000;72.302734
77517;BME280;68414;53.946;27.634;2023-12-14T00:58:42;98459.046875;;;3.810000;72.776367
77517;BME280;68414;53.946;27.634;2023-12-14T00:59:42;98451.578125;;;3.830000;72.517578
77517;BME280;68414;53.946;27.634;2023-12-14T01:00:42;98457.203125;;;3.760000;72.289062
77517;BME280;68414;53.946;27.634;2023-12-14T01:01:42;98458.531250;;;3.740000;72.655273
77517;BME280;68414;53.946;27.634;2023-12-14T01:02:42;98458.000000;;;3.770000;72.681641
77517;BME280;68414;53.946;27.634;2023-12-14T01:03:42;98459.046875;;;3.810000;72.590820
77517;BME280;68414;53.946;27.634;2023-12-14T01:04:42;98454.765625;;;3.850000;72.860352
77517;BME280;68414;53.946;27.634;2023-12-14T01:05:42;98456.406250;;;3.760000;72.668945
77517;BME280;68414;53.946;27.634;2023-12-14T01:06:42;98463.046875;;;3.730000;72.904297
77517;BME280;68414;53.946;27.634;2023-12-14T01:07:42;98456.937500;;;3.730000;73.243164
77517;BME280;68414;53.946;27.634;2023-12-14T01:08:42;98457.476562;;;3.690000;72.059570
77517;BME280;68414;53.946;27.634;2023-12-14T01:09:42;98457.476562;;;3.690000;73.271484
77517;BME280;68414;53.946;27.634;2023-12-14T01:10:42;98456.671875;;;3.740000;72.995117
77517;BME280;68414;53.946;27.634;2023-12-14T01:11:42;98458.000000;;;3.770000;72.943359
77517;BME280;68414;53.946;27.634;2023-12-14T01:12:42;98455.859375;;;3.790000;72.357422
77517;BME280;68414;53.946;27.634;2023-12-14T01:13:42;98459.062500;;;3.700000;72.945312
77517;BME280;68414;53.946;27.634;2023-12-14T01:14:42;98455.335938;;;3.770000;73.019531
77517;BME280;68414;53.946;27.634;2023-12-14T01:15:42;98446.570312;;;3.760000;72.670898
77517;BME280;68414;53.946;27.634;2023-12-14T01:16:42;98459.593750;;;3.730000;72.359375
77517;BME280;68414;53.946;27.634;2023-12-14T01:17:42;98451.085938;;;3.760000;73.170898
77517;BME280;68414;53.946;27.634;2023-12-14T01:18:42;98456.664062;;;3.790000;72.598633
77517;BME280;68414;53.946;27.634;2023-12-14T01:19:42;98454.007812;;;3.790000;72.609375
77517;BME280;68414;53.946;27.634;2023-12-14T01:20:42;98453.734375;;;3.810000;72.678711
77517;BME280;68414;53.946;27.634;2023-12-14T01:21:42;98456.890625;;;3.830000;72.245117
77517;BME280;68414;53.946;27.634;2023-12-14T01:22:42;98455.296875;;;3.820000;72.451172
77517;BME280;68414;53.946;27.634;2023-12-14T01:23:42;98455.828125;;;3.840000;72.366211
77517;BME280;68414;53.946;27.634;2023-12-14T01:24:42;98447.312500;;;3.870000;72.438477
77517;BME280;68414;53.946;27.634;2023-12-14T01:25:42;98454.500000;;;3.810000;72.590820
77517;BME280;68414;53.946;27.634;2023-12-14T01:26:42;98447.625000;;;3.800000;73.016602
77517;BME280;68414;53.946;27.634;2023-12-14T01:27:42;98451.039062;;;3.860000;72.543945
77517;BME280;68414;53.946;27.634;2023-12-14T01:28:42;98453.421875;;;3.870000;72.208984
77517;BME280;68414;53.946;27.634;2023-12-14T01:29:42;98447.859375;;;3.840000;72.005859
77517;BME280;68414;53.946;27.634;2023-12-14T01:30:42;98440.953125;;;3.830000;72.736328
77517;BME280;68414;53.946;27.634;2023-12-14T01:31:42;98453.734375;;;3.810000;72.318359
77517;BME280;68414;53.946;27.634;2023-12-14T01:32:42;98452.375000;;;3.830000;72.419922
77517;BME280;68414;53.946;27.634;2023-12-14T01:33:42;98444.914062;;;3.900000;72.542969
77517;BME280;68414;53.946;27.634;2023-12-14T01:34:42;98447.328125;;;3.820000;72.210938
77517;BME280;68414;53.946;27.634;2023-12-14T01:35:42;98445.765625;;;3.810000;72.710938
77517;BME280;68414;53.946;27.634;2023-12-14T01:36:42;98449.187500;;;3.810000;72.427734
77517;BME280;68414;53.946;27.634;2023-12-14T01:37:42;98449.484375;;;3.800000;72.632812
77517;BME280;68414;53.946;27.634;2023-12-14T01:38:42;98449.984375;;;3.820000;72.559570
77517;BME280;68414;53.946;27.634;2023-12-14T01:39:42;98441.742188;;;3.830000;72.670898
77517;BME280;68414;53.946;27.634;2023-12-14T01:40:42;98449.171875;;;3.860000;72.643555
77517;BME280;68414;53.946;27.634;2023-12-14T01:41:42;98447.312500;;;3.870000;72.099609
77517;BME280;68414;53.946;27.634;2023-12-14T01:42:42;98446.515625;;;3.860000;72.305664
77517;BME280;68414;53.946;27.634;2023-12-14T01:43:42;98440.664062;;;3.890000;72.321289
77517;BME280;68414;53.946;27.634;2023-12-14T01:44:42;98446.781250;;;3.900000;72.486328
77517;BME280;68414;53.946;27.634;2023-12-14T01:45:42;98444.640625;;;3.920000;72.369141
77517;BME280;68414;53.946;27.634;2023-12-14T01:46:42;98443.851562;;;3.910000;72.465820
77517;BME280;68414;53.946;27.634;2023-12-14T01:47:42;98438.531250;;;3.910000;72.291016
77517;BME280;68414;53.946;27.634;2023-12-14T01:48:42;98439.328125;;;3.920000;72.369141
77517;BME280;68414;53.946;27.634;2023-12-14T01:49:42;98442.515625;;;3.940000;71.979492
77517;BME280;68414;53.946;27.634;2023-12-14T01:50:42;98438.531250;;;3.910000;72.018555
77517;BME280;68414;53.946;27.634;2023-12-14T01:51:42;98441.718750;;;3.930000;71.945312
77517;BME280;68414;53.946;27.634;2023-12-14T01:52:42;98438.789062;;;3.950000;71.927734
77517;BME280;68414;53.946;27.634;2023-12-14T01:53:42;98444.906250;;;3.950000;72.080078
77517;BME280;68414;53.946;27.634;2023-12-14T01:54:42;98439.843750;;;3.990000;72.108398
77517;BME280;68414;53.946;27.634;2023-12-14T01:55:42;98437.710938;;;4.010000;71.849609
77517;BME280;68414;53.946;27.634;2023-12-14T01:56:42;98444.617188;;;4.020000;71.927734
77517;BME280;68414;53.946;27.634;2023-12-14T01:57:42;98448.867188;;;4.030000;72.038086
77517;BME280;68414;53.946;27.634;2023-12-14T01:58:42;98452.609375;;;3.970000;71.427734
77517;BME280;68414;53.946;27.634;2023-12-14T01:59:42;98446.492188;;;3.960000;72.343750
77517;BME280;68414;53.946;27.634;2023-12-14T02:01:42;98438.531250;;;3.910000;72.050781
77517;BME280;68414;53.946;27.634;2023-12-14T02:02:42;98442.515625;;;3.940000;72.470703
77517;BME280;68414;53.946;27.634;2023-12-14T02:04:42;98441.437500;;;4.000000;72.142578
77517;BME280;68414;53.946;27.634;2023-12-14T02:05:42;98438.773438;;;4.000000;71.662109
77517;BME280;68414;53.946;27.634;2023-12-14T02:06:42;98440.906250;;;3.980000;71.756836
77517;BME280;68414;53.946;27.634;2023-12-14T02:07:42;98440.367188;;;4.010000;71.860352
77517;BME280;68414;53.946;27.634;2023-12-14T02:08:42;98435.843750;;;4.010000;71.763672
77517;BME280;68414;53.946;27.634;2023-12-14T02:09:42;98443.562500;;;3.980000;71.124023
77517;BME280;68414;53.946;27.634;2023-12-14T02:10:42;98437.203125;;;3.940000;71.750000
77517;BME280;68414;53.946;27.634;2023-12-14T02:11:42;98436.937500;;;3.900000;72.083984
77517;BME280;68414;53.946;27.634;2023-12-14T02:12:42;98440.953125;;;3.830000;72.255859
77517;BME280;68414;53.946;27.634;2023-12-14T02:13:42;98441.742188;;;3.830000;72.670898
77517;BME280;68414;53.946;27.634;2023-12-14T02:14:42;98437.210938;;;3.890000;73.074219
77517;BME280;68414;53.946;27.634;2023-12-14T02:15:42;98438.265625;;;3.930000;72.774414
77517;BME280;68414;53.946;27.634;2023-12-14T02:16:42;98431.687500;;;3.800000;72.536133
77517;BME280;68414;53.946;27.634;2023-12-14T02:17:42;98433.296875;;;3.710000;72.213867
77517;BME280;68414;53.946;27.634;2023-12-14T02:18:42;98431.960938;;;3.740000;73.298828
77517;BME280;68414;53.946;27.634;2023-12-14T02:19:42;98438.328125;;;3.780000;73.131836
77517;BME280;68414;53.946;27.634;2023-12-14T02:20:42;98434.046875;;;3.820000;73.127930
77517;BME280;68414;53.946;27.634;2023-12-14T02:21:42;98427.125000;;;3.860000;72.992188
77517;BME280;68414;53.946;27.634;2023-12-14T02:24:42;98435.578125;;;4.030000;72.158203
77517;BME280;68414;53.946;27.634;2023-12-14T02:25:42;98430.265625;;;4.030000;71.699219
77517;BME280;68414;53.946;27.634;2023-12-14T02:26:42;98427.078125;;;4.010000;71.947266
77517;BME280;68414;53.946;27.634;2023-12-14T02:27:42;98424.937500;;;4.030000;72.059570
77517;BME280;68414;53.946;27.634;2023-12-14T02:28:42;98436.375000;;;4.030000;71.918945
77517;BME280;68414;53.946;27.634;2023-12-14T02:29:42;98436.625000;;;4.070000;71.915039
77517;BME280;68414;53.946;27.634;2023-12-14T02:30:42;98436.625000;;;4.070000;70.997070
77517;BME280;68414;53.946;27.634;2023-12-14T02:31:42;98439.539062;;;4.110000;72.169922
77517;BME280;68414;53.946;27.634;2023-12-14T02:32:42;98436.625000;;;4.070000;71.696289
77517;BME280;68414;53.946;27.634;2023-12-14T02:33:42;98439.015625;;;4.090000;71.642578
77517;BME280;68414;53.946;27.634;2023-12-14T02:34:42;98435.015625;;;4.110000;71.866211
77517;BME280;68414;53.946;27.634;2023-12-14T02:35:42;98431.023438;;;4.140000;71.793945
77517;BME280;68414;53.946;27.634;2023-12-14T02:36:42;98431.023438;;;4.140000;71.619141
77517;BME280;68414;53.946;27.634;2023-12-14T02:37:42;98433.953125;;;4.120000;71.049805
77517;BME280;68414;53.946;27.634;2023-12-14T02:38:42;98436.085938;;;4.100000;71.459961
77517;BME280;68414;53.946;27.634;2023-12-14T02:39:42;98431.562500;;;4.110000;71.547852
77517;BME280;68414;53.946;27.634;2023-12-14T02:40:42;98428.632812;;;4.120000;71.431641
77517;BME280;68414;53.946;27.634;2023-12-14T02:41:42;98431.851562;;;4.040000;71.351562
77517;BME280;68414;53.946;27.634;2023-12-14T02:42:42;98428.125000;;;4.050000;71.605469
77517;BME280;68414;53.946;27.634;2023-12-14T02:43:42;98427.859375;;;4.070000;71.662109
77517;BME280;68414;53.946;27.634;2023-12-14T02:44:42;98426.531250;;;4.040000;70.804688
77517;BME280;68414;53.946;27.634;2023-12-14T02:45:42;98430.023438;;;3.940000;71.762695
77517;BME280;68414;53.946;27.634;2023-12-14T02:46:42;98428.187500;;;3.850000;72.784180
77517;BME280;68414;53.946;27.634;2023-12-14T02:47:42;98430.031250;;;3.890000;72.550781
77517;BME280;68414;53.946;27.634;2023-12-14T02:48:42;98430.546875;;;3.960000;72.453125
77517;BME280;68414;53.946;27.634;2023-12-14T02:49:42;98434.000000;;;3.970000;72.291016
77517;BME280;68414;53.946;27.634;2023-12-14T02:50:42;98427.617188;;;3.980000;71.910156
77517;BME280;68414;53.946;27.634;2023-12-14T02:51:42;98431.867188;;;3.990000;72.108398
77517;BME280;68414;53.946;27.634;2023-12-14T02:52:42;98430.796875;;;4.000000;71.847656
77517;BME280;68414;53.946;27.634;2023-12-14T02:53:42;98430.796875;;;4.000000;71.891602
77517;BME280;68414;53.946;27.634;2023-12-14T02:54:42;98427.875000;;;4.010000;71.862305
77517;BME280;68414;53.946;27.634;2023-12-14T02:55:42;98431.882812;;;3.940000;70.745117
77517;BME280;68414;53.946;27.634;2023-12-14T02:56:42;98431.085938;;;3.930000;72.196289
77517;BME280;68414;53.946;27.634;2023-12-14T02:57:42;98424.187500;;;3.870000;71.236328
77517;BME280;68414;53.946;27.634;2023-12-14T02:58:42;98434.031250;;;3.870000;72.077148
77517;BME280;68414;53.946;27.634;2023-12-14T02:59:42;98439.078125;;;3.880000;72.341797
77517;BME280;68414;53.946;27.634;2023-12-14T03:00:42;98438.804688;;;3.900000;71.961914
77517;BME280;68414;53.946;27.634;2023-12-14T03:01:42;98442.515625;;;3.940000;72.066406
77517;BME280;68414;53.946;27.634;2023-12-14T03:02:42;98444.109375;;;3.950000;72.145508
77517;BME280;68414;53.946;27.634;2023-12-14T03:03:42;98436.656250;;;3.970000;71.734375
77517;BME280;68414;53.946;27.634;2023-12-14T03:04:42;98442.234375;;;4.000000;71.860352
77517;BME280;68414;53.946;27.634;2023-12-14T03:05:42;98439.828125;;;4.040000;71.493164
77517;BME280;68414;53.946;27.634;2023-12-14T03:06:42;98441.945312;;;4.070000;71.761719
77517;BME280;68414;53.946;27.634;2023-12-14T03:07:42;98444.601562;;;4.070000;71.488281
77517;BME280;68414;53.946;27.634;2023-12-14T03:08:42;98438.742188;;;4.100000;71.613281
77517;BME280;68414;53.946;27.634;2023-12-14T03:09:42;98447.765625;;;4.140000;71.369141
77517;BME280;68414;53.946;27.634;2023-12-14T03:10:42;98453.914062;;;4.040000;70.916016
77517;BME280;68414;53.946;27.634;2023-12-14T03:11:42;98450.984375;;;4.060000;71.541016
77517;BME280;68414;53.946;27.634;2023-12-14T03:12:42;98450.203125;;;4.000000;71.291992
77517;BME280;68414;53.946;27.634;2023-12-14T03:13:42;98446.750000;;;4.000000;71.771484
77517;BME280;68414;53.946;27.634;2023-12-14T03:14:42;98449.937500;;;4.020000;71.818359
77517;BME280;68414;53.946;27.634;2023-12-14T03:15:42;98460.593750;;;3.920000;71.855469
77517;BME280;68414;53.946;27.634;2023-12-14T03:16:42;98453.156250;;;3.890000;72.496094
77517;BME280;68414;53.946;27.634;2023-12-14T03:17:42;98459.062500;;;3.700000;72.213867
77517;BME280;68414;53.946;27.634;2023-12-14T03:18:42;98451.093750;;;3.700000;73.120117
77517;BME280;68414;53.946;27.634;2023-12-14T03:19:42;98461.718750;;;3.760000;73.160156
77517;BME280;68414;53.946;27.634;2023-12-14T03:20:42;98463.312500;;;3.770000;72.550781
77517;BME280;68414;53.946;27.634;2023-12-14T03:21:42;98468.109375;;;3.640000;72.879883
77517;BME280;68414;53.946;27.634;2023-12-14T03:22:42;98454.835938;;;3.540000;72.426758
77517;BME280;68414;53.946;27.634;2023-12-14T03:23:42;98454.828125;;;3.590000;73.830078
77517;BME280;68414;53.946;27.634;2023-12-14T03:24:42;98446.859375;;;3.640000;73.544922
77517;BME280;68414;53.946;27.634;2023-12-14T03:25:42;98447.390625;;;3.660000;73.428711
77517;BME280;68414;53.946;27.634;2023-12-14T03:26:42;98453.750000;;;3.760000;73.455078
77517;BME280;68414;53.946;27.634;2023-12-14T03:27:42;98447.890625;;;3.790000;73.034180
77517;BME280;68414;53.946;27.634;2023-12-14T03:28:42;98445.992188;;;3.840000;72.750000
77517;BME280;68414;53.946;27.634;2023-12-14T03:29:42;98446.515625;;;3.860000;72.512695
77517;BME280;68414;53.946;27.634;2023-12-14T03:30:42;98452.093750;;;3.900000;72.191406
77517;BME280;68414;53.946;27.634;2023-12-14T03:31:42;98447.296875;;;3.920000;72.489258
77517;BME280;68414;53.946;27.634;2023-12-14T03:32:42;98447.031250;;;3.930000;72.152344
77517;BME280;68414;53.946;27.634;2023-12-14T03:33:42;98445.695312;;;3.960000;71.708984
77517;BME280;68414;53.946;27.634;2023-12-14T03:34:42;98452.609375;;;3.970000;71.734375
77517;BME280;68414;53.946;27.634;2023-12-14T03:35:42;98450.468750;;;3.990000;71.900391
77517;BME280;68414;53.946;27.634;2023-12-14T03:36:42;98452.859375;;;4.000000;71.729492
77517;BME280;68414;53.946;27.634;2023-12-14T03:37:42;98457.906250;;;4.020000;71.336914
77517;BME280;68414;53.946;27.634;2023-12-14T03:38:42;98447.000000;;;4.030000;71.570312
77517;BME280;68414;53.946;27.634;2023-12-14T03:39:42;98450.453125;;;4.040000;71.602539
77517;BME280;68414;53.946;27.634;2023-12-14T03:40:42;98455.234375;;;4.070000;71.334961
77517;BME280;68414;53.946;27.634;2023-12-14T03:41:42;98453.640625;;;4.060000;71.475586
77517;BME280;68414;53.946;27.634;2023-12-14T03:42:42;98451.242188;;;4.100000;71.470703
77517;BME280;68414;53.946;27.634;2023-12-14T03:43:42;98449.109375;;;4.120000;71.419922
77517;BME280;68414;53.946;27.634;2023-12-14T03:44:42;98456.812500;;;4.130000;71.235352
77517;BME280;68414;53.946;27.634;2023-12-14T03:45:42;98453.882812;;;4.150000;71.194336
77517;BME280;68414;53.946;27.634;2023-12-14T03:46:42;98455.468750;;;4.160000;71.185547
77517;BME280;68414;53.946;27.634;2023-12-14T03:47:42;98451.500000;;;4.130000;71.038086
77517;BME280;68414;53.946;27.634;2023-12-14T03:48:42;98453.085938;;;4.140000;70.975586
77517;BME280;68414;53.946;27.634;2023-12-14T03:49:42;98445.609375;;;4.160000;71.175781
77517;BME280;68414;53.946;27.634;2023-12-14T03:50:42;98449.359375;;;4.150000;71.272461
77517;BME280;68414;53.946;27.634;2023-12-14T03:51:42;98443.468750;;;4.180000;71.178711
77517;BME280;68414;53.946;27.634;2023-12-14T03:52:42;98445.609375;;;4.160000;70.531250
77517;BME280;68414;53.946;27.634;2023-12-14T03:53:42;98442.718750;;;4.130000;70.721680
77517;BME280;68414;53.946;27.634;2023-12-14T03:54:42;98439.265625;;;4.120000;71.016602
77517;BME280;68414;53.946;27.634;2023-12-14T03:55:42;98441.945312;;;4.070000;71.160156
77517;BME280;68414;53.946;27.634;2023-12-14T03:56:42;98439.281250;;;4.070000;70.909180
77517;BME280;68414;53.946;27.634;2023-12-14T03:57:42;98435.828125;;;4.070000;71.213867
77517;BME280;68414;53.946;27.634;2023-12-14T03:58:42;98436.085938;;;4.100000;70.935547
77517;BME280;68414;53.946;27.634;2023-12-14T03:59:42;98436.625000;;;4.070000;70.930664
77517;BME280;68414;53.946;27.634;2023-12-14T04:00:42;98437.968750;;;4.040000;70.992188
77517;BME280;68414;53.946;27.634;2023-12-14T04:01:42;98436.375000;;;4.030000;71.296875
77517;BME280;68414;53.946;27.634;2023-12-14T04:02:42;98434.031250;;;3.870000;70.712891
77517;BME280;68414;53.946;27.634;2023-12-14T04:03:42;98430.359375;;;3.780000;71.691406
77517;BME280;68414;53.946;27.634;2023-12-14T04:04:42;98427.703125;;;3.780000;72.564453
77517;BME280;68414;53.946;27.634;2023-12-14T04:05:42;98431.687500;;;3.800000;72.088867
77517;BME280;68414;53.946;27.634;2023-12-14T04:06:42;98420.468750;;;3.880000;72.253906
77517;BME280;68414;53.946;27.634;2023-12-14T04:07:42;98425.500000;;;3.950000;71.971680
77517;BME280;68414;53.946;27.634;2023-12-14T04:08:42;98411.671875;;;3.980000;71.756836
77517;BME280;68414;53.946;27.634;2023-12-14T04:09:43;98426.031250;;;3.970000;71.373047
77517;BME280;68414;53.946;27.634;2023-12-14T04:10:42;98420.171875;;;4.000000;71.792969
77517;BME280;68414;53.946;27.634;2023-12-14T04:11:42;98421.218750;;;4.040000;71.493164
77517;BME280;68414;53.946;27.634;2023-12-14T04:12:42;98425.742188;;;4.030000;71.242188
77517;BME280;68414;53.946;27.634;2023-12-14T04:13:42;98420.671875;;;4.070000;71.313477
77517;BME280;68414;53.946;27.634;2023-12-14T04:14:42;98423.875000;;;4.040000;71.515625
77517;BME280;68414;53.946;27.634;2023-12-14T04:15:42;98424.671875;;;4.040000;71.265625
77517;BME280;68414;53.946;27.634;2023-12-14T04:16:42;98420.171875;;;4.000000;71.377930
77517;BME280;68414;53.946;27.634;2023-12-14T04:17:42;98426.804688;;;4.020000;71.557617
77517;BME280;68414;53.946;27.634;2023-12-14T04:18:42;98423.890625;;;3.990000;70.196289
77517;BME280;68414;53.946;27.634;2023-12-14T04:19:42;98422.046875;;;3.940000;71.904297
77517;BME280;68414;53.946;27.634;2023-12-14T04:20:42;98423.890625;;;3.990000;71.682617
77517;BME280;68414;53.946;27.634;2023-12-14T04:21:42;98413.265625;;;3.990000;71.453125
77517;BME280;68414;53.946;27.634;2023-12-14T04:22:46;98415.937500;;;3.940000;71.345703
77517;BME280;68414;53.946;27.634;2023-12-14T04:23:42;98419.125000;;;3.960000;71.020508
77517;BME280;68414;53.946;27.634;2023-12-14T04:24:42;98409.015625;;;3.980000;71.484375
77517;BME280;68414;53.946;27.634;2023-12-14T04:25:42;98419.640625;;;3.980000;71.484375
77517;BME280;68414;53.946;27.634;2023-12-14T04:26:42;98412.718750;;;4.020000;71.336914
77517;BME280;68414;53.946;27.634;2023-12-14T04:27:42;98416.156250;;;4.080000;71.380859
77517;BME280;68414;53.946;27.634;2023-12-14T04:28:42;98412.429688;;;4.090000;70.987305
77517;BME280;68414;53.946;27.634;2023-12-14T04:29:42;98416.406250;;;4.110000;70.598633
77517;BME280;68414;53.946;27.634;2023-12-14T04:30:42;98411.632812;;;4.080000;70.506836
77517;BME280;68414;53.946;27.634;2023-12-14T04:31:42;98406.335938;;;4.030000;71.164062
77517;BME280;68414;53.946;27.634;2023-12-14T04:32:42;98416.460938;;;3.960000;71.207031
77517;BME280;68414;53.946;27.634;2023-12-14T04:33:42;98420.453125;;;3.930000;71.682617
77517;BME280;68414;53.946;27.634;2023-12-14T04:34:42;98415.406250;;;3.920000;71.473633
77517;BME280;68414;53.946;27.634;2023-12-14T04:35:42;98410.625000;;;3.940000;71.356445
77517;BME280;68414;53.946;27.634;2023-12-14T04:36:42;98411.687500;;;3.930000;71.191406
77517;BME280;68414;53.946;27.634;2023-12-14T04:37:42;98412.210938;;;3.950000;71.567383